sensor_id;sensor_type;location;lat;lon;timestamp;P1;durP1;ratioP1;P2;durP2;ratioP2
73869;SDS011;64924;42.140;24.762;2024-03-23T00:54:38;14.55;;;8.70;;
73869;SDS011;64924;42.140;24.762;2024-03-23T00:57:03;19.88;;;8.65;;
73869;SDS011;64924;42.140;24.762;2024-03-23T00:59:29;13.98;;;8.00;;
73869;SDS011;64924;42.140;24.762;2024-03-23T01:01:56;17.77;;;7.82;;
73869;SDS011;64924;42.140;24.762;2024-03-23T01:04:21;16.27;;;8.43;;
73869;SDS011;64924;42.140;24.762;2024-03-23T01:06:47;16.85;;;8.23;;
73869;SDS011;64924;42.140;24.762;2024-03-23T01:09:12;18.95;;;8.02;;
73869;SDS011;64924;42.140;24.762;2024-03-23T01:11:38;17.17;;;7.93;;
73869;SDS011;64924;42.140;24.762;2024-03-23T01:14:06;14.95;;;8.13;;
73869;SDS011;64924;42.140;24.762;2024-03-23T01:16:32;13.70;;;8.30;;
73869;SDS011;64924;42.140;24.762;2024-03-23T01:18:57;14.93;;;8.23;;
73869;SDS011;64924;42.140;24.762;2024-03-23T01:21:23;16.98;;;8.55;;
73869;SDS011;64924;42.140;24.762;2024-03-23T01:23:48;17.48;;;8.65;;
73869;SDS011;64924;42.140;24.762;2024-03-23T01:26:14;13.18;;;8.23;;
73869;SDS011;64924;42.140;24.762;2024-03-23T01:28:40;19.02;;;10.07;;
73869;SDS011;64924;42.140;24.762;2024-03-23T01:31:05;16.60;;;9.18;;
73869;SDS011;64924;42.140;24.762;2024-03-23T01:33:31;18.17;;;9.65;;
73869;SDS011;64924;42.140;24.762;2024-03-23T01:35:56;17.77;;;10.10;;
73869;SDS011;64924;42.140;24.762;2024-03-23T01:38:22;20.27;;;9.90;;
73869;SDS011;64924;42.140;24.762;2024-03-23T01:40:47;23.80;;;10.43;;
73869;SDS011;64924;42.140;24.762;2024-03-23T01:43:13;18.67;;;10.35;;
73869;SDS011;64924;42.140;24.762;2024-03-23T01:45:38;18.50;;;10.00;;
73869;SDS011;64924;42.140;24.762;2024-03-23T01:48:04;17.48;;;10.90;;
73869;SDS011;64924;42.140;24.762;2024-03-23T01:50:31;19.52;;;9.90;;
73869;SDS011;64924;42.140;24.762;2024-03-23T01:53:02;20.10;;;11.20;;
73869;SDS011;64924;42.140;24.762;2024-03-23T01:55:30;21.60;;;11.73;;
73869;SDS011;64924;42.140;24.762;2024-03-23T01:57:57;22.05;;;12.48;;
73869;SDS011;64924;42.140;24.762;2024-03-23T02:00:22;23.00;;;11.68;;
73869;SDS011;64924;42.140;24.762;2024-03-23T02:02:48;20.40;;;11.30;;
73869;SDS011;64924;42.140;24.762;2024-03-23T02:05:14;31.70;;;13.55;;
73869;SDS011;64924;42.140;24.762;2024-03-23T02:07:42;27.35;;;13.45;;
73869;SDS011;64924;42.140;24.762;2024-03-23T02:10:08;25.92;;;13.05;;
73869;SDS011;64924;42.140;24.762;2024-03-23T02:12:40;23.02;;;11.32;;
73869;SDS011;64924;42.140;24.762;2024-03-23T02:15:06;22.92;;;12.80;;
73869;SDS011;64924;42.140;24.762;2024-03-23T02:17:33;21.83;;;12.02;;
73869;SDS011;64924;42.140;24.762;2024-03-23T02:19:59;22.85;;;12.13;;
73869;SDS011;64924;42.140;24.762;2024-03-23T02:22:25;21.60;;;12.07;;
73869;SDS011;64924;42.140;24.762;2024-03-23T02:24:59;25.25;;;12.57;;
73869;SDS011;64924;42.140;24.762;2024-03-23T02:27:24;25.95;;;12.18;;
73869;SDS011;64924;42.140;24.762;2024-03-23T02:29:50;23.17;;;12.63;;
73869;SDS011;64924;42.140;24.762;2024-03-23T02:32:15;21.85;;;13.10;;
73869;SDS011;64924;42.140;24.762;2024-03-23T02:34:40;18.00;;;11.60;;
73869;SDS011;64924;42.140;24.762;2024-03-23T02:37:10;21.38;;;11.95;;
73869;SDS011;64924;42.140;24.762;2024-03-23T02:39:36;23.58;;;13.90;;
73869;SDS011;64924;42.140;24.762;2024-03-23T02:42:02;23.90;;;12.93;;
73869;SDS011;64924;42.140;24.762;2024-03-23T02:44:28;21.63;;;13.30;;
73869;SDS011;64924;42.140;24.762;2024-03-23T02:46:53;24.30;;;13.27;;
73869;SDS011;64924;42.140;24.762;2024-03-23T02:49:18;20.00;;;11.82;;
73869;SDS011;64924;42.140;24.762;2024-03-23T02:51:46;25.40;;;12.75;;
73869;SDS011;64924;42.140;24.762;2024-03-23T02:54:13;22.58;;;12.82;;
73869;SDS011;64924;42.140;24.762;2024-03-23T02:56:39;23.02;;;12.48;;
73869;SDS011;64924;42.140;24.762;2024-03-23T02:59:04;25.48;;;11.98;;
73869;SDS011;64924;42.140;24.762;2024-03-23T03:01:30;20.48;;;11.98;;
73869;SDS011;64924;42.140;24.762;2024-03-23T03:03:55;23.45;;;11.60;;
73869;SDS011;64924;42.140;24.762;2024-03-23T03:06:24;20.02;;;12.32;;
73869;SDS011;64924;42.140;24.762;2024-03-23T03:08:50;27.52;;;12.35;;
73869;SDS011;64924;42.140;24.762;2024-03-23T03:11:16;21.40;;;12.40;;
73869;SDS011;64924;42.140;24.762;2024-03-23T03:13:41;20.83;;;12.68;;
73869;SDS011;64924;42.140;24.762;2024-03-23T03:16:10;19.15;;;12.18;;
73869;SDS011;64924;42.140;24.762;2024-03-23T03:18:36;16.05;;;10.48;;
73869;SDS011;64924;42.140;24.762;2024-03-23T03:21:02;20.50;;;11.73;;
73869;SDS011;64924;42.140;24.762;2024-03-23T03:23:30;19.80;;;13.02;;
73869;SDS011;64924;42.140;24.762;2024-03-23T03:25:56;18.33;;;11.40;;
73869;SDS011;64924;42.140;24.762;2024-03-23T03:28:22;22.17;;;11.98;;
73869;SDS011;64924;42.140;24.762;2024-03-23T03:30:47;18.42;;;12.18;;
73869;SDS011;64924;42.140;24.762;2024-03-23T03:33:13;21.50;;;12.68;;
73869;SDS011;64924;42.140;24.762;2024-03-23T03:35:38;22.02;;;13.15;;
73869;SDS011;64924;42.140;24.762;2024-03-23T03:38:04;22.73;;;13.48;;
73869;SDS011;64924;42.140;24.762;2024-03-23T03:40:29;24.35;;;13.52;;
73869;SDS011;64924;42.140;24.762;2024-03-23T03:42:55;26.48;;;14.85;;
73869;SDS011;64924;42.140;24.762;2024-03-23T03:45:20;23.13;;;14.10;;
73869;SDS011;64924;42.140;24.762;2024-03-23T03:47:46;23.65;;;13.43;;
73869;SDS011;64924;42.140;24.762;2024-03-23T03:50:12;26.38;;;12.95;;
73869;SDS011;64924;42.140;24.762;2024-03-23T03:52:37;24.00;;;13.77;;
73869;SDS011;64924;42.140;24.762;2024-03-23T03:55:03;20.23;;;13.02;;
73869;SDS011;64924;42.140;24.762;2024-03-23T03:57:28;21.20;;;12.40;;
73869;SDS011;64924;42.140;24.762;2024-03-23T03:59:54;23.23;;;12.52;;
73869;SDS011;64924;42.140;24.762;2024-03-23T04:02:20;21.80;;;12.20;;
73869;SDS011;64924;42.140;24.762;2024-03-23T04:04:45;27.10;;;13.82;;
73869;SDS011;64924;42.140;24.762;2024-03-23T04:07:10;20.92;;;13.68;;
73869;SDS011;64924;42.140;24.762;2024-03-23T04:09:36;22.33;;;12.88;;
73869;SDS011;64924;42.140;24.762;2024-03-23T04:12:01;20.75;;;13.57;;
73869;SDS011;64924;42.140;24.762;2024-03-23T04:14:27;25.67;;;14.20;;
73869;SDS011;64924;42.140;24.762;2024-03-23T04:16:53;24.55;;;13.38;;
73869;SDS011;64924;42.140;24.762;2024-03-23T04:19:18;20.77;;;13.55;;
73869;SDS011;64924;42.140;24.762;2024-03-23T04:21:44;19.55;;;12.10;;
73869;SDS011;64924;42.140;24.762;2024-03-23T04:24:10;19.13;;;11.48;;
73869;SDS011;64924;42.140;24.762;2024-03-23T04:26:42;20.67;;;11.57;;
73869;SDS011;64924;42.140;24.762;2024-03-23T04:29:08;19.67;;;10.68;;
73869;SDS011;64924;42.140;24.762;2024-03-23T04:31:34;15.75;;;10.05;;
73869;SDS011;64924;42.140;24.762;2024-03-23T04:34:00;19.67;;;11.15;;
73869;SDS011;64924;42.140;24.762;2024-03-23T04:36:26;16.85;;;10.40;;
73869;SDS011;64924;42.140;24.762;2024-03-23T04:38:52;17.35;;;11.18;;
73869;SDS011;64924;42.140;24.762;2024-03-23T04:41:17;18.42;;;10.45;;
73869;SDS011;64924;42.140;24.762;2024-03-23T04:43:43;22.40;;;11.00;;
73869;SDS011;64924;42.140;24.762;2024-03-23T04:46:08;18.80;;;11.10;;
73869;SDS011;64924;42.140;24.762;2024-03-23T04:48:34;19.25;;;9.65;;
73869;SDS011;64924;42.140;24.762;2024-03-23T04:51:00;16.40;;;8.95;;
73869;SDS011;64924;42.140;24.762;2024-03-23T04:53:25;15.38;;;9.32;;
73869;SDS011;64924;42.140;24.762;2024-03-23T04:55:56;15.15;;;9.82;;
73869;SDS011;64924;42.140;24.762;2024-03-23T04:58:22;14.63;;;8.43;;
73869;SDS011;64924;42.140;24.762;2024-03-23T05:00:57;14.55;;;8.98;;
73869;SDS011;64924;42.140;24.762;2024-03-23T05:03:22;11.73;;;8.63;;
73869;SDS011;64924;42.140;24.762;2024-03-23T05:05:49;12.70;;;8.73;;
73869;SDS011;64924;42.140;24.762;2024-03-23T05:08:15;14.90;;;8.60;;
73869;SDS011;64924;42.140;24.762;2024-03-23T05:10:41;12.82;;;8.27;;
73869;SDS011;64924;42.140;24.762;2024-03-23T05:13:07;12.82;;;8.45;;
73869;SDS011;64924;42.140;24.762;2024-03-23T05:15:33;12.60;;;8.52;;
73869;SDS011;64924;42.140;24.762;2024-03-23T05:17:59;13.73;;;8.93;;
73869;SDS011;64924;42.140;24.762;2024-03-23T05:20:24;12.88;;;8.60;;
73869;SDS011;64924;42.140;24.762;2024-03-23T05:22:50;13.07;;;7.13;;
73869;SDS011;64924;42.140;24.762;2024-03-23T05:25:18;12.88;;;8.18;;
73869;SDS011;64924;42.140;24.762;2024-03-23T05:27:47;11.93;;;7.88;;
73869;SDS011;64924;42.140;24.762;2024-03-23T05:30:13;11.23;;;8.00;;
73869;SDS011;64924;42.140;24.762;2024-03-23T05:32:39;14.30;;;8.10;;
73869;SDS011;64924;42.140;24.762;2024-03-23T05:35:06;14.27;;;8.38;;
73869;SDS011;64924;42.140;24.762;2024-03-23T05:37:32;17.80;;;8.82;;
73869;SDS011;64924;42.140;24.762;2024-03-23T05:39:59;12.60;;;7.68;;
73869;SDS011;64924;42.140;24.762;2024-03-23T05:42:25;17.00;;;8.80;;
73869;SDS011;64924;42.140;24.762;2024-03-23T05:44:50;14.05;;;7.80;;
73869;SDS011;64924;42.140;24.762;2024-03-23T05:47:16;13.30;;;9.13;;
73869;SDS011;64924;42.140;24.762;2024-03-23T05:49:45;15.35;;;9.52;;
73869;SDS011;64924;42.140;24.762;2024-03-23T05:52:11;14.70;;;9.18;;
73869;SDS011;64924;42.140;24.762;2024-03-23T05:54:36;14.63;;;8.20;;
73869;SDS011;64924;42.140;24.762;2024-03-23T05:57:05;10.60;;;8.60;;
73869;SDS011;64924;42.140;24.762;2024-03-23T05:59:34;13.25;;;7.53;;
73869;SDS011;64924;42.140;24.762;2024-03-23T06:01:59;10.38;;;7.18;;
73869;SDS011;64924;42.140;24.762;2024-03-23T06:04:24;9.73;;;8.27;;
73869;SDS011;64924;42.140;24.762;2024-03-23T06:06:51;50.03;;;41.53;;
73869;SDS011;64924;42.140;24.762;2024-03-23T06:09:17;74.03;;;43.63;;
73869;SDS011;64924;42.140;24.762;2024-03-23T06:11:43;32.72;;;20.77;;
73869;SDS011;64924;42.140;24.762;2024-03-23T06:14:08;111.15;;;65.40;;
73869;SDS011;64924;42.140;24.762;2024-03-23T06:16:34;38.25;;;22.70;;
73869;SDS011;64924;42.140;24.762;2024-03-23T06:18:59;26.13;;;16.15;;
73869;SDS011;64924;42.140;24.762;2024-03-23T06:21:25;17.00;;;11.10;;
73869;SDS011;64924;42.140;24.762;2024-03-23T06:23:51;15.93;;;9.30;;
73869;SDS011;64924;42.140;24.762;2024-03-23T06:26:18;12.93;;;9.15;;
73869;SDS011;64924;42.140;24.762;2024-03-23T06:28:44;14.23;;;8.93;;
73869;SDS011;64924;42.140;24.762;2024-03-23T06:31:10;11.15;;;8.63;;
73869;SDS011;64924;42.140;24.762;2024-03-23T06:33:35;20.90;;;8.55;;
73869;SDS011;64924;42.140;24.762;2024-03-23T06:36:01;10.82;;;7.78;;
73869;SDS011;64924;42.140;24.762;2024-03-23T06:38:28;12.20;;;8.88;;
73869;SDS011;64924;42.140;24.762;2024-03-23T06:40:53;11.90;;;8.18;;
73869;SDS011;64924;42.140;24.762;2024-03-23T06:43:19;15.82;;;8.50;;
73869;SDS011;64924;42.140;24.762;2024-03-23T06:45:44;13.90;;;8.73;;
73869;SDS011;64924;42.140;24.762;2024-03-23T06:48:18;14.35;;;9.52;;
73869;SDS011;64924;42.140;24.762;2024-03-23T06:50:44;12.70;;;8.30;;
73869;SDS011;64924;42.140;24.762;2024-03-23T06:53:09;14.25;;;9.57;;
73869;SDS011;64924;42.140;24.762;2024-03-23T06:55:35;11.63;;;8.25;;
73869;SDS011;64924;42.140;24.762;2024-03-23T06:58:00;21.77;;;10.15;;
73869;SDS011;64924;42.140;24.762;2024-03-23T07:00:26;12.05;;;8.93;;
73869;SDS011;64924;42.140;24.762;2024-03-23T07:02:51;12.70;;;8.23;;
73869;SDS011;64924;42.140;24.762;2024-03-23T07:05:17;12.60;;;9.15;;
73869;SDS011;64924;42.140;24.762;2024-03-23T07:07:43;17.75;;;9.43;;
73869;SDS011;64924;42.140;24.762;2024-03-23T07:10:08;15.63;;;8.57;;
73869;SDS011;64924;42.140;24.762;2024-03-23T07:12:34;14.35;;;9.32;;
73869;SDS011;64924;42.140;24.762;2024-03-23T07:14:59;12.60;;;9.30;;
73869;SDS011;64924;42.140;24.762;2024-03-23T07:17:25;16.40;;;10.77;;
73869;SDS011;64924;42.140;24.762;2024-03-23T07:19:50;17.30;;;12.43;;
73869;SDS011;64924;42.140;24.762;2024-03-23T07:22:16;17.23;;;9.77;;
73869;SDS011;64924;42.140;24.762;2024-03-23T07:24:41;15.57;;;9.23;;
73869;SDS011;64924;42.140;24.762;2024-03-23T07:27:06;16.52;;;10.10;;
73869;SDS011;64924;42.140;24.762;2024-03-23T07:29:35;15.82;;;10.15;;
73869;SDS011;64924;42.140;24.762;2024-03-23T07:32:01;16.33;;;9.32;;
73869;SDS011;64924;42.140;24.762;2024-03-23T07:34:26;17.63;;;9.43;;
73869;SDS011;64924;42.140;24.762;2024-03-23T07:36:52;14.02;;;9.70;;
73869;SDS011;64924;42.140;24.762;2024-03-23T07:39:17;16.63;;;10.85;;
73869;SDS011;64924;42.140;24.762;2024-03-23T07:41:46;13.10;;;9.93;;
73869;SDS011;64924;42.140;24.762;2024-03-23T07:44:11;15.95;;;10.43;;
73869;SDS011;64924;42.140;24.762;2024-03-23T07:46:37;12.18;;;8.90;;
73869;SDS011;64924;42.140;24.762;2024-03-23T07:49:04;20.77;;;11.82;;
73869;SDS011;64924;42.140;24.762;2024-03-23T07:51:29;15.32;;;10.27;;
73869;SDS011;64924;42.140;24.762;2024-03-23T07:53:55;21.35;;;13.75;;
73869;SDS011;64924;42.140;24.762;2024-03-23T07:56:20;14.70;;;11.18;;
73869;SDS011;64924;42.140;24.762;2024-03-23T07:58:47;11.18;;;8.60;;
73869;SDS011;64924;42.140;24.762;2024-03-23T08:01:16;19.15;;;10.95;;
73869;SDS011;64924;42.140;24.762;2024-03-23T08:03:45;19.27;;;12.57;;
73869;SDS011;64924;42.140;24.762;2024-03-23T08:06:14;18.17;;;11.13;;
73869;SDS011;64924;42.140;24.762;2024-03-23T08:08:51;15.52;;;9.63;;
73869;SDS011;64924;42.140;24.762;2024-03-23T08:11:31;11.43;;;9.25;;
73869;SDS011;64924;42.140;24.762;2024-03-23T08:13:59;16.92;;;12.32;;
73869;SDS011;64924;42.140;24.762;2024-03-23T08:16:26;15.10;;;10.35;;
73869;SDS011;64924;42.140;24.762;2024-03-23T08:18:51;13.73;;;10.20;;
73869;SDS011;64924;42.140;24.762;2024-03-23T08:21:17;20.17;;;12.50;;
73869;SDS011;64924;42.140;24.762;2024-03-23T08:23:43;22.98;;;14.57;;
73869;SDS011;64924;42.140;24.762;2024-03-23T08:26:09;15.95;;;11.70;;
73869;SDS011;64924;42.140;24.762;2024-03-23T08:28:36;10.23;;;6.32;;
73869;SDS011;64924;42.140;24.762;2024-03-23T08:31:12;8.07;;;5.70;;
73869;SDS011;64924;42.140;24.762;2024-03-23T08:33:38;11.05;;;7.35;;
73869;SDS011;64924;42.140;24.762;2024-03-23T08:36:05;11.95;;;7.90;;
73869;SDS011;64924;42.140;24.762;2024-03-23T08:38:32;13.23;;;8.85;;
73869;SDS011;64924;42.140;24.762;2024-03-23T08:40:58;15.75;;;9.70;;
73869;SDS011;64924;42.140;24.762;2024-03-23T08:45:53;13.50;;;9.38;;
73869;SDS011;64924;42.140;24.762;2024-03-23T08:48:19;13.32;;;9.65;;
73869;SDS011;64924;42.140;24.762;2024-03-23T08:50:58;13.15;;;8.90;;
73869;SDS011;64924;42.140;24.762;2024-03-23T08:53:29;14.13;;;8.73;;
73869;SDS011;64924;42.140;24.762;2024-03-23T08:55:56;11.90;;;7.63;;
73869;SDS011;64924;42.140;24.762;2024-03-23T08:58:22;13.40;;;8.20;;
73869;SDS011;64924;42.140;24.762;2024-03-23T09:00:49;10.52;;;8.48;;
73869;SDS011;64924;42.140;24.762;2024-03-23T09:03:15;12.55;;;8.70;;
73869;SDS011;64924;42.140;24.762;2024-03-23T09:05:41;11.68;;;8.45;;
73869;SDS011;64924;42.140;24.762;2024-03-23T09:08:06;14.77;;;9.15;;
73869;SDS011;64924;42.140;24.762;2024-03-23T09:10:38;10.90;;;8.25;;
73869;SDS011;64924;42.140;24.762;2024-03-23T09:13:04;14.90;;;7.85;;
73869;SDS011;64924;42.140;24.762;2024-03-23T09:15:29;13.63;;;7.38;;
73869;SDS011;64924;42.140;24.762;2024-03-23T09:17:56;12.77;;;7.32;;
73869;SDS011;64924;42.140;24.762;2024-03-23T09:20:23;13.85;;;7.60;;
73869;SDS011;64924;42.140;24.762;2024-03-23T09:22:49;16.13;;;8.45;;
73869;SDS011;64924;42.140;24.762;2024-03-23T09:25:14;15.07;;;8.55;;
73869;SDS011;64924;42.140;24.762;2024-03-23T09:27:40;10.32;;;7.40;;
73869;SDS011;64924;42.140;24.762;2024-03-23T09:30:05;15.35;;;8.25;;
73869;SDS011;64924;42.140;24.762;2024-03-23T09:32:31;12.82;;;7.70;;
73869;SDS011;64924;42.140;24.762;2024-03-23T09:34:57;11.25;;;7.85;;
73869;SDS011;64924;42.140;24.762;2024-03-23T09:37:22;9.45;;;6.95;;
73869;SDS011;64924;42.140;24.762;2024-03-23T09:39:48;12.52;;;7.95;;
73869;SDS011;64924;42.140;24.762;2024-03-23T09:42:13;13.05;;;7.57;;
73869;SDS011;64924;42.140;24.762;2024-03-23T09:44:39;12.25;;;7.30;;
73869;SDS011;64924;42.140;24.762;2024-03-23T09:47:05;12.63;;;7.00;;
73869;SDS011;64924;42.140;24.762;2024-03-23T09:49:33;10.52;;;6.70;;
73869;SDS011;64924;42.140;24.762;2024-03-23T09:52:01;14.63;;;7.63;;
73869;SDS011;64924;42.140;24.762;2024-03-23T09:54:28;8.75;;;6.65;;
73869;SDS011;64924;42.140;24.762;2024-03-23T09:56:53;12.85;;;7.32;;
73869;SDS011;64924;42.140;24.762;2024-03-23T09:59:19;9.32;;;6.20;;
73869;SDS011;64924;42.140;24.762;2024-03-23T10:01:44;10.30;;;5.90;;
73869;SDS011;64924;42.140;24.762;2024-03-23T10:04:10;8.98;;;6.82;;
73869;SDS011;64924;42.140;24.762;2024-03-23T10:06:35;10.02;;;7.32;;
73869;SDS011;64924;42.140;24.762;2024-03-23T10:09:01;12.77;;;7.40;;
73869;SDS011;64924;42.140;24.762;2024-03-23T10:11:27;11.95;;;6.60;;
73869;SDS011;64924;42.140;24.762;2024-03-23T10:13:54;14.38;;;7.20;;
73869;SDS011;64924;42.140;24.762;2024-03-23T10:16:22;9.45;;;6.57;;
73869;SDS011;64924;42.140;24.762;2024-03-23T10:18:48;10.57;;;6.20;;
73869;SDS011;64924;42.140;24.762;2024-03-23T10:21:15;8.02;;;6.32;;
73869;SDS011;64924;42.140;24.762;2024-03-23T10:23:41;9.27;;;6.65;;
73869;SDS011;64924;42.140;24.762;2024-03-23T10:28:53;10.80;;;6.80;;
73869;SDS011;64924;42.140;24.762;2024-03-23T10:31:18;11.93;;;6.13;;
73869;SDS011;64924;42.140;24.762;2024-03-23T10:33:53;8.02;;;6.18;;
73869;SDS011;64924;42.140;24.762;2024-03-23T10:36:20;13.65;;;6.65;;
73869;SDS011;64924;42.140;24.762;2024-03-23T10:38:50;9.75;;;7.25;;
73869;SDS011;64924;42.140;24.762;2024-03-23T10:43:42;10.77;;;5.60;;
73869;SDS011;64924;42.140;24.762;2024-03-23T10:46:13;9.50;;;5.80;;
73869;SDS011;64924;42.140;24.762;2024-03-23T10:48:38;11.00;;;5.90;;
73869;SDS011;64924;42.140;24.762;2024-03-23T10:51:05;12.82;;;6.05;;
73869;SDS011;64924;42.140;24.762;2024-03-23T10:53:35;9.15;;;6.05;;
73869;SDS011;64924;42.140;24.762;2024-03-23T10:56:04;8.95;;;6.10;;
73869;SDS011;64924;42.140;24.762;2024-03-23T11:03:38;9.27;;;5.30;;
73869;SDS011;64924;42.140;24.762;2024-03-23T11:06:06;9.05;;;5.38;;
73869;SDS011;64924;42.140;24.762;2024-03-23T11:08:38;9.70;;;5.63;;
73869;SDS011;64924;42.140;24.762;2024-03-23T11:11:19;9.00;;;4.85;;
73869;SDS011;64924;42.140;24.762;2024-03-23T11:13:49;8.90;;;5.90;;
73869;SDS011;64924;42.140;24.762;2024-03-23T11:16:18;11.48;;;5.22;;
73869;SDS011;64924;42.140;24.762;2024-03-23T11:18:58;7.25;;;5.43;;
73869;SDS011;64924;42.140;24.762;2024-03-23T11:21:59;7.28;;;4.93;;
73869;SDS011;64924;42.140;24.762;2024-03-23T11:24:25;9.50;;;4.97;;
73869;SDS011;64924;42.140;24.762;2024-03-23T11:26:51;6.55;;;5.00;;
73869;SDS011;64924;42.140;24.762;2024-03-23T11:29:17;9.77;;;5.43;;
73869;SDS011;64924;42.140;24.762;2024-03-23T11:31:49;7.15;;;5.70;;
73869;SDS011;64924;42.140;24.762;2024-03-23T11:34:16;9.35;;;5.03;;
73869;SDS011;64924;42.140;24.762;2024-03-23T11:36:42;12.48;;;5.35;;
73869;SDS011;64924;42.140;24.762;2024-03-23T11:39:12;8.15;;;5.13;;
73869;SDS011;64924;42.140;24.762;2024-03-23T11:41:50;11.02;;;4.90;;
73869;SDS011;64924;42.140;24.762;2024-03-23T11:44:20;6.75;;;5.00;;
73869;SDS011;64924;42.140;24.762;2024-03-23T11:46:49;7.15;;;4.85;;
73869;SDS011;64924;42.140;24.762;2024-03-23T11:49:25;9.30;;;5.40;;
73869;SDS011;64924;42.140;24.762;2024-03-23T11:51:56;7.88;;;5.38;;
73869;SDS011;64924;42.140;24.762;2024-03-23T11:54:25;5.27;;;4.00;;
73869;SDS011;64924;42.140;24.762;2024-03-23T11:59:33;7.05;;;4.82;;
73869;SDS011;64924;42.140;24.762;2024-03-23T12:02:00;6.50;;;4.85;;
73869;SDS011;64924;42.140;24.762;2024-03-23T12:04:28;9.20;;;4.95;;
73869;SDS011;64924;42.140;24.762;2024-03-23T12:07:14;6.63;;;5.00;;
73869;SDS011;64924;42.140;24.762;2024-03-23T12:10:03;6.55;;;4.03;;
73869;SDS011;64924;42.140;24.762;2024-03-23T12:12:29;6.70;;;4.80;;
73869;SDS011;64924;42.140;24.762;2024-03-23T12:15:02;6.75;;;4.40;;
73869;SDS011;64924;42.140;24.762;2024-03-23T12:17:32;8.65;;;4.80;;
73869;SDS011;64924;42.140;24.762;2024-03-23T12:19:57;8.60;;;5.28;;
73869;SDS011;64924;42.140;24.762;2024-03-23T12:22:23;7.63;;;4.70;;
73869;SDS011;64924;42.140;24.762;2024-03-23T12:24:49;7.70;;;4.90;;
73869;SDS011;64924;42.140;24.762;2024-03-23T12:27:15;6.22;;;4.20;;
73869;SDS011;64924;42.140;24.762;2024-03-23T12:29:41;6.63;;;5.05;;
73869;SDS011;64924;42.140;24.762;2024-03-23T12:32:10;9.88;;;4.22;;
73869;SDS011;64924;42.140;24.762;2024-03-23T12:34:36;7.25;;;4.65;;
73869;SDS011;64924;42.140;24.762;2024-03-23T12:37:01;6.07;;;4.38;;
73869;SDS011;64924;42.140;24.762;2024-03-23T12:39:27;7.82;;;4.40;;
73869;SDS011;64924;42.140;24.762;2024-03-23T12:41:52;6.72;;;4.20;;
73869;SDS011;64924;42.140;24.762;2024-03-23T12:44:18;6.03;;;4.47;;
73869;SDS011;64924;42.140;24.762;2024-03-23T12:46:44;6.78;;;4.55;;
73869;SDS011;64924;42.140;24.762;2024-03-23T12:49:10;7.07;;;4.82;;
73869;SDS011;64924;42.140;24.762;2024-03-23T12:51:38;8.13;;;5.28;;
73869;SDS011;64924;42.140;24.762;2024-03-23T12:54:05;5.07;;;3.97;;
73869;SDS011;64924;42.140;24.762;2024-03-23T12:56:30;9.70;;;4.78;;
73869;SDS011;64924;42.140;24.762;2024-03-23T12:58:56;6.70;;;3.95;;
73869;SDS011;64924;42.140;24.762;2024-03-23T13:01:25;8.45;;;4.47;;
73869;SDS011;64924;42.140;24.762;2024-03-23T13:03:51;7.57;;;4.32;;
73869;SDS011;64924;42.140;24.762;2024-03-23T13:06:17;6.70;;;3.35;;
73869;SDS011;64924;42.140;24.762;2024-03-23T13:08:44;7.40;;;3.67;;
73869;SDS011;64924;42.140;24.762;2024-03-23T13:11:10;5.53;;;3.90;;
73869;SDS011;64924;42.140;24.762;2024-03-23T13:13:38;8.15;;;4.63;;
73869;SDS011;64924;42.140;24.762;2024-03-23T13:16:04;5.90;;;4.18;;
73869;SDS011;64924;42.140;24.762;2024-03-23T13:18:30;6.30;;;3.90;;
73869;SDS011;64924;42.140;24.762;2024-03-23T13:20:56;8.43;;;4.55;;
73869;SDS011;64924;42.140;24.762;2024-03-23T13:23:22;8.07;;;5.05;;
73869;SDS011;64924;42.140;24.762;2024-03-23T13:25:51;6.13;;;4.65;;
73869;SDS011;64924;42.140;24.762;2024-03-23T13:28:20;6.78;;;4.63;;
73869;SDS011;64924;42.140;24.762;2024-03-23T13:30:53;7.60;;;5.13;;
73869;SDS011;64924;42.140;24.762;2024-03-23T13:33:20;9.15;;;6.00;;
73869;SDS011;64924;42.140;24.762;2024-03-23T13:35:55;13.98;;;6.55;;
73869;SDS011;64924;42.140;24.762;2024-03-23T13:38:24;10.05;;;7.50;;
73869;SDS011;64924;42.140;24.762;2024-03-23T13:43:22;9.65;;;7.72;;
73869;SDS011;64924;42.140;24.762;2024-03-23T13:45:49;8.07;;;6.22;;
73869;SDS011;64924;42.140;24.762;2024-03-23T13:48:22;9.57;;;6.97;;
73869;SDS011;64924;42.140;24.762;2024-03-23T13:53:27;11.82;;;7.85;;
73869;SDS011;64924;42.140;24.762;2024-03-23T13:55:53;11.35;;;5.88;;
73869;SDS011;64924;42.140;24.762;2024-03-23T13:58:18;9.40;;;6.00;;
73869;SDS011;64924;42.140;24.762;2024-03-23T14:00:44;9.55;;;5.45;;
73869;SDS011;64924;42.140;24.762;2024-03-23T14:03:10;6.53;;;4.97;;
73869;SDS011;64924;42.140;24.762;2024-03-23T14:05:39;8.35;;;4.45;;
73869;SDS011;64924;42.140;24.762;2024-03-23T14:08:06;8.48;;;4.15;;
73869;SDS011;64924;42.140;24.762;2024-03-23T14:10:35;7.50;;;3.92;;
73869;SDS011;64924;42.140;24.762;2024-03-23T14:13:04;6.50;;;4.50;;
73869;SDS011;64924;42.140;24.762;2024-03-23T14:15:29;4.38;;;3.22;;
73869;SDS011;64924;42.140;24.762;2024-03-23T14:17:55;7.50;;;3.40;;
73869;SDS011;64924;42.140;24.762;2024-03-23T14:20:21;7.10;;;3.92;;
73869;SDS011;64924;42.140;24.762;2024-03-23T14:22:50;7.75;;;3.78;;
73869;SDS011;64924;42.140;24.762;2024-03-23T14:25:16;4.57;;;3.08;;
73869;SDS011;64924;42.140;24.762;2024-03-23T14:27:43;6.10;;;3.78;;
73869;SDS011;64924;42.140;24.762;2024-03-23T14:30:09;6.00;;;3.75;;
73869;SDS011;64924;42.140;24.762;2024-03-23T14:32:35;6.25;;;3.88;;
73869;SDS011;64924;42.140;24.762;2024-03-23T14:35:05;7.45;;;4.25;;
73869;SDS011;64924;42.140;24.762;2024-03-23T14:37:38;8.35;;;4.40;;
73869;SDS011;64924;42.140;24.762;2024-03-23T14:40:04;4.82;;;2.97;;
73869;SDS011;64924;42.140;24.762;2024-03-23T14:42:30;7.30;;;2.92;;
73869;SDS011;64924;42.140;24.762;2024-03-23T14:45:01;6.03;;;3.35;;
73869;SDS011;64924;42.140;24.762;2024-03-23T14:47:30;4.85;;;2.88;;
73869;SDS011;64924;42.140;24.762;2024-03-23T14:49:56;5.53;;;2.90;;
73869;SDS011;64924;42.140;24.762;2024-03-23T14:52:23;5.35;;;2.75;;
73869;SDS011;64924;42.140;24.762;2024-03-23T14:54:49;7.72;;;2.67;;
73869;SDS011;64924;42.140;24.762;2024-03-23T14:57:15;3.63;;;2.30;;
73869;SDS011;64924;42.140;24.762;2024-03-23T14:59:40;5.28;;;2.05;;
73869;SDS011;64924;42.140;24.762;2024-03-23T15:02:09;4.63;;;2.30;;
73869;SDS011;64924;42.140;24.762;2024-03-23T15:04:38;4.22;;;2.05;;
73869;SDS011;64924;42.140;24.762;2024-03-23T15:07:07;4.18;;;2.47;;
73869;SDS011;64924;42.140;24.762;2024-03-23T15:09:32;6.60;;;2.28;;
73869;SDS011;64924;42.140;24.762;2024-03-23T15:11:58;3.95;;;2.47;;
73869;SDS011;64924;42.140;24.762;2024-03-23T15:14:26;5.70;;;2.88;;
73869;SDS011;64924;42.140;24.762;2024-03-23T15:16:51;5.05;;;2.90;;
73869;SDS011;64924;42.140;24.762;2024-03-23T15:19:18;4.68;;;2.50;;
73869;SDS011;64924;42.140;24.762;2024-03-23T15:21:43;6.85;;;3.00;;
73869;SDS011;64924;42.140;24.762;2024-03-23T15:24:09;3.92;;;2.53;;
73869;SDS011;64924;42.140;24.762;2024-03-23T15:26:36;4.40;;;3.05;;
73869;SDS011;64924;42.140;24.762;2024-03-23T15:29:02;7.05;;;3.20;;
73869;SDS011;64924;42.140;24.762;2024-03-23T15:31:28;8.07;;;2.72;;
73869;SDS011;64924;42.140;24.762;2024-03-23T15:33:54;4.97;;;2.58;;